createdAt,value
2022-10-09T00:01:09.239Z,3.00
2022-10-09T00:03:39.542Z,2.87
2022-10-09T00:06:09.530Z,2.53
2022-10-09T00:08:40.037Z,3.07
2022-10-09T00:11:09.225Z,2.57
2022-10-09T00:13:37.689Z,2.97
2022-10-09T00:16:08.562Z,2.80
2022-10-09T00:18:36.573Z,3.20
2022-10-09T00:21:05.723Z,3.63
2022-10-09T00:23:33.990Z,3.13
2022-10-09T00:26:03.531Z,3.20
2022-10-09T00:28:36.521Z,3.07
2022-10-09T00:31:07.227Z,3.03
2022-10-09T00:33:35.568Z,2.87
2022-10-09T00:36:04.625Z,3.33
2022-10-09T00:38:32.622Z,2.70
2022-10-09T00:41:00.436Z,3.33
2022-10-09T00:43:47.651Z,2.93
2022-10-09T00:46:36.179Z,2.83
2022-10-09T00:49:11.742Z,3.30
2022-10-09T00:51:40.292Z,2.83
2022-10-09T00:54:13.195Z,3.10
2022-10-09T00:56:41.364Z,3.33
2022-10-09T00:59:11.719Z,3.30
2022-10-09T01:01:41.801Z,3.13
2022-10-09T01:04:09.965Z,2.77
2022-10-09T01:06:53.899Z,2.80
2022-10-09T01:09:26.593Z,3.20
2022-10-09T01:12:01.997Z,3.07
2022-10-09T01:14:35.696Z,3.47
2022-10-09T01:17:13.376Z,3.50
2022-10-09T01:19:57.784Z,3.10
2022-10-09T01:22:44.168Z,3.37
2022-10-09T01:25:20.844Z,2.73
2022-10-09T01:27:50.445Z,3.57
2022-10-09T01:30:18.632Z,3.37
2022-10-09T01:32:51.908Z,3.23
2022-10-09T01:35:21.107Z,2.90
2022-10-09T01:37:52.071Z,3.30
2022-10-09T01:40:21.064Z,3.20
2022-10-09T01:42:50.651Z,3.23
2022-10-09T01:45:18.898Z,2.77
2022-10-09T01:47:46.745Z,3.20
2022-10-09T01:50:23.328Z,3.57
2022-10-09T01:52:54.121Z,2.63
2022-10-09T01:55:37.554Z,3.07
2022-10-09T01:58:16.220Z,2.90
2022-10-09T02:00:48.035Z,3.23
2022-10-09T02:03:18.359Z,2.97
2022-10-09T02:05:50.542Z,3.20
2022-10-09T02:08:21.005Z,3.37
2022-10-09T02:10:53.976Z,3.47
2022-10-09T02:13:24.397Z,2.93
2022-10-09T02:15:57.569Z,3.40
2022-10-09T02:18:32.606Z,2.90
2022-10-09T02:21:08.600Z,3.13
2022-10-09T02:23:39.903Z,3.20
2022-10-09T02:26:11.351Z,3.17
2022-10-09T02:28:45.706Z,3.40
2022-10-09T02:31:21.338Z,2.80
2022-10-09T02:33:56.575Z,3.17
2022-10-09T02:36:24.697Z,2.80
2022-10-09T02:38:52.845Z,2.63
2022-10-09T02:41:20.716Z,3.43
2022-10-09T02:43:50.079Z,3.07
2022-10-09T02:46:18.524Z,2.87
2022-10-09T02:48:46.582Z,2.80
2022-10-09T02:51:14.690Z,3.13
2022-10-09T02:53:42.620Z,3.23
2022-10-09T02:56:11.021Z,2.83
2022-10-09T02:58:40.055Z,3.10
2022-10-09T03:01:09.298Z,3.17
2022-10-09T03:03:37.169Z,3.47
2022-10-09T03:06:09.571Z,3.00
2022-10-09T03:08:37.607Z,2.90
2022-10-09T03:11:05.781Z,3.00
2022-10-09T03:13:34.089Z,3.10
2022-10-09T03:16:05.500Z,3.60
2022-10-09T03:18:35.332Z,2.77
2022-10-09T03:21:06.355Z,3.00
2022-10-09T03:23:34.409Z,3.10
2022-10-09T03:26:04.487Z,3.73
2022-10-09T03:28:32.456Z,2.83
2022-10-09T03:31:00.782Z,3.07
2022-10-09T03:33:28.952Z,2.80
2022-10-09T03:35:58.131Z,2.67
2022-10-09T03:38:26.189Z,2.90
2022-10-09T03:40:54.328Z,3.27
2022-10-09T03:43:22.382Z,2.63
2022-10-09T03:45:50.301Z,2.70
2022-10-09T03:48:18.560Z,2.70
2022-10-09T03:50:46.398Z,2.70
2022-10-09T03:53:16.450Z,2.73
2022-10-09T03:55:44.513Z,2.87
2022-10-09T03:58:12.384Z,2.93
2022-10-09T04:00:40.311Z,2.80
2022-10-09T04:03:08.285Z,3.03
2022-10-09T04:05:36.563Z,3.03
2022-10-09T04:08:04.379Z,3.10
2022-10-09T04:10:33.678Z,3.00
2022-10-09T04:13:01.530Z,3.00
2022-10-09T04:15:29.340Z,3.10
2022-10-09T04:17:57.192Z,3.30
2022-10-09T04:20:24.989Z,3.60
2022-10-09T04:22:52.780Z,3.20
2022-10-09T04:25:20.730Z,3.63
2022-10-09T04:27:49.966Z,3.17
2022-10-09T04:30:17.916Z,3.27
2022-10-09T04:32:48.514Z,3.43
2022-10-09T04:35:17.529Z,3.30
2022-10-09T04:37:45.412Z,3.10
2022-10-09T04:40:13.351Z,2.80
2022-10-09T04:42:41.376Z,3.00
2022-10-09T04:45:11.833Z,3.23
2022-10-09T04:47:40.783Z,3.07
2022-10-09T04:50:09.650Z,3.50
2022-10-09T04:52:37.459Z,3.77
2022-10-09T04:55:05.827Z,3.60
2022-10-09T04:57:33.652Z,3.70
2022-10-09T05:00:01.476Z,3.83
2022-10-09T05:02:32.143Z,3.83
2022-10-09T05:05:00.024Z,3.80
2022-10-09T05:07:27.831Z,3.53
2022-10-09T05:09:55.792Z,3.43
2022-10-09T05:12:23.597Z,3.60
2022-10-09T05:14:51.447Z,3.57
2022-10-09T05:17:23.022Z,3.67
2022-10-09T05:19:52.753Z,3.40
2022-10-09T05:22:20.748Z,4.30
2022-10-09T05:24:48.570Z,4.00
2022-10-09T05:27:16.430Z,4.20
2022-10-09T05:29:44.505Z,3.97
2022-10-09T05:32:12.386Z,3.70
2022-10-09T05:34:40.257Z,4.23
2022-10-09T05:37:09.758Z,3.93
2022-10-09T05:39:38.448Z,4.30
2022-10-09T05:42:07.200Z,3.80
2022-10-09T05:44:35.180Z,3.93
2022-10-09T05:47:03.586Z,4.20
2022-10-09T05:49:31.492Z,4.00
2022-10-09T05:52:00.154Z,4.10
2022-10-09T05:54:29.727Z,4.50
2022-10-09T05:56:57.640Z,4.50
2022-10-09T05:59:26.945Z,4.03
2022-10-09T06:01:54.948Z,3.97
2022-10-09T06:04:24.269Z,4.43
2022-10-09T06:06:52.872Z,4.27
2022-10-09T06:09:24.121Z,4.67
2022-10-09T06:11:55.135Z,4.40
2022-10-09T06:14:24.514Z,4.77
2022-10-09T06:16:52.964Z,4.57
2022-10-09T06:19:21.728Z,4.50
2022-10-09T06:21:50.605Z,4.20
2022-10-09T06:24:24.530Z,4.70
2022-10-09T06:26:58.099Z,4.30
2022-10-09T06:29:26.137Z,4.30
2022-10-09T06:31:54.145Z,4.30
2022-10-09T06:34:22.320Z,4.07
2022-10-09T06:36:50.400Z,4.43
2022-10-09T06:39:18.463Z,3.93
2022-10-09T06:41:46.563Z,4.77
2022-10-09T06:44:17.377Z,4.07
2022-10-09T06:46:49.429Z,4.23
2022-10-09T06:49:17.294Z,4.10
2022-10-09T06:51:45.142Z,4.67
2022-10-09T06:54:14.529Z,4.50
2022-10-09T06:56:42.383Z,4.80
2022-10-09T06:59:12.551Z,4.53
2022-10-09T07:01:42.028Z,4.20
2022-10-09T07:04:12.793Z,5.10
2022-10-09T07:06:43.169Z,4.37
2022-10-09T07:09:13.319Z,4.37
2022-10-09T07:11:43.675Z,4.57
2022-10-09T07:14:13.098Z,4.17
2022-10-09T07:16:44.272Z,4.93
2022-10-09T07:19:12.775Z,4.60
2022-10-09T07:21:42.785Z,4.73
2022-10-09T07:24:12.071Z,5.00
2022-10-09T07:26:42.027Z,5.00
2022-10-09T07:29:12.394Z,4.70
2022-10-09T07:31:40.461Z,4.70
2022-10-09T07:34:09.674Z,4.60
2022-10-09T07:36:37.749Z,4.90
2022-10-09T07:39:07.049Z,4.90
2022-10-09T07:41:35.734Z,4.70
2022-10-09T07:44:03.727Z,4.40
2022-10-09T07:46:33.994Z,4.40
2022-10-09T07:49:02.249Z,4.77
2022-10-09T07:51:32.503Z,4.20
2022-10-09T07:54:02.094Z,4.87
2022-10-09T07:56:32.479Z,4.20
2022-10-09T07:59:01.715Z,4.43
2022-10-09T08:01:30.653Z,4.47
2022-10-09T08:03:59.494Z,4.63
2022-10-09T08:06:27.564Z,4.40
2022-10-09T08:08:59.085Z,4.27
2022-10-09T08:11:28.733Z,4.80
2022-10-09T08:13:57.271Z,4.83
2022-10-09T08:16:27.032Z,4.33
2022-10-09T08:18:59.348Z,4.97
2022-10-09T08:21:28.453Z,5.13
2022-10-09T08:23:59.560Z,4.70
2022-10-09T08:26:29.875Z,4.60
2022-10-09T08:28:59.521Z,4.80
2022-10-09T08:31:28.186Z,4.93
2022-10-09T08:33:57.769Z,4.30
2022-10-09T08:36:26.700Z,4.27
2022-10-09T08:38:55.303Z,4.40
2022-10-09T08:41:38.492Z,4.60
2022-10-09T08:44:12.134Z,4.13
2022-10-09T08:46:51.222Z,3.87
2022-10-09T08:49:26.274Z,4.20
2022-10-09T08:51:57.753Z,4.13
2022-10-09T08:54:34.504Z,3.70
2022-10-09T08:57:11.048Z,5.00
2022-10-09T08:59:38.980Z,3.93
2022-10-09T09:02:26.588Z,4.30
2022-10-09T09:05:03.972Z,3.97
2022-10-09T09:07:39.071Z,4.80
2022-10-09T09:10:14.936Z,4.00
2022-10-09T09:12:51.085Z,3.60
2022-10-09T09:15:31.615Z,3.80
2022-10-09T09:18:08.427Z,9.23
2022-10-09T09:20:48.454Z,6.20
2022-10-09T09:23:17.891Z,5.40
2022-10-09T09:25:46.223Z,7.67
2022-10-09T09:28:21.493Z,4.33
2022-10-09T09:30:55.841Z,7.70
2022-10-09T09:33:35.775Z,5.23
2022-10-09T09:36:10.209Z,4.00
2022-10-09T09:38:53.713Z,4.60
2022-10-09T09:41:28.361Z,5.00
2022-10-09T09:43:57.698Z,3.93
2022-10-09T09:46:31.252Z,6.67
2022-10-09T09:48:59.558Z,5.60
2022-10-09T09:51:30.194Z,5.00
2022-10-09T09:54:00.960Z,5.03
2022-10-09T09:56:59.730Z,4.43
2022-10-09T09:59:33.438Z,4.93
2022-10-09T10:02:03.120Z,3.80
2022-10-09T10:04:31.079Z,3.83
2022-10-09T10:06:59.213Z,3.57
2022-10-09T10:09:27.153Z,3.40
2022-10-09T10:11:58.323Z,3.83
2022-10-09T10:14:28.688Z,4.03
2022-10-09T10:16:58.331Z,5.80
2022-10-09T10:19:28.625Z,8.67
2022-10-09T10:21:58.849Z,5.33
2022-10-09T10:24:31.812Z,3.87
2022-10-09T10:27:04.042Z,8.43
2022-10-09T10:29:38.382Z,4.73
2022-10-09T10:32:15.535Z,4.40
2022-10-09T10:34:50.570Z,3.67
2022-10-09T10:37:40.609Z,4.63
2022-10-09T10:40:16.101Z,3.23
2022-10-09T10:42:57.444Z,3.23
2022-10-09T10:45:35.650Z,3.67
2022-10-09T10:48:06.288Z,2.93
2022-10-09T10:50:39.771Z,2.83
2022-10-09T10:53:18.304Z,3.00
2022-10-09T10:55:55.328Z,3.93
2022-10-09T10:58:30.611Z,5.30
2022-10-09T11:01:20.459Z,3.77
2022-10-09T11:04:15.869Z,3.10
2022-10-09T11:06:54.485Z,3.00
2022-10-09T11:09:31.833Z,2.80
2022-10-09T11:12:19.330Z,3.37
2022-10-09T11:15:03.281Z,2.73
2022-10-09T11:17:41.353Z,2.80
2022-10-09T11:20:37.036Z,3.70
2022-10-09T11:23:14.258Z,3.97
2022-10-09T11:25:46.735Z,3.60
2022-10-09T11:28:19.560Z,3.10
2022-10-09T11:30:54.055Z,3.87
2022-10-09T11:33:33.480Z,2.87
2022-10-09T11:36:06.165Z,3.00
2022-10-09T11:38:38.631Z,2.20
2022-10-09T11:41:08.095Z,3.40
2022-10-09T11:43:53.550Z,3.60
2022-10-09T11:46:33.563Z,4.00
2022-10-09T11:49:10.968Z,5.43
2022-10-09T11:51:46.491Z,3.97
2022-10-09T11:54:17.612Z,3.30
2022-10-09T11:56:55.357Z,2.83
2022-10-09T11:59:26.252Z,2.37
2022-10-09T12:01:54.403Z,2.10
2022-10-09T12:04:54.027Z,2.30
2022-10-09T12:07:32.486Z,2.40
2022-10-09T12:10:06.482Z,3.77
2022-10-09T12:12:37.759Z,3.37
2022-10-09T12:15:24.786Z,4.17
2022-10-09T12:17:52.641Z,2.93
2022-10-09T12:20:25.941Z,4.90
2022-10-09T12:23:21.694Z,2.50
2022-10-09T12:25:47.172Z,2.20
2022-10-09T12:28:21.788Z,2.87
2022-10-09T12:30:51.884Z,6.07
2022-10-09T12:33:25.258Z,6.53
2022-10-09T12:36:04.276Z,4.67
2022-10-09T12:38:32.965Z,3.70
2022-10-09T12:41:03.930Z,3.07
2022-10-09T12:43:33.681Z,2.53
2022-10-09T12:46:02.232Z,6.87
2022-10-09T12:48:36.585Z,9.17
2022-10-09T12:51:16.127Z,4.60
2022-10-09T12:53:49.892Z,3.17
2022-10-09T12:56:23.892Z,6.37
2022-10-09T12:58:53.412Z,3.30
2022-10-09T13:01:22.318Z,2.30
2022-10-09T13:03:58.911Z,3.97
2022-10-09T13:06:33.835Z,3.33
2022-10-09T13:09:05.294Z,6.73
2022-10-09T13:11:38.037Z,9.83
2022-10-09T13:14:06.739Z,6.67
2022-10-09T13:16:41.983Z,4.10
2022-10-09T13:19:24.841Z,2.57
2022-10-09T13:22:21.920Z,11.93
2022-10-09T13:24:53.472Z,4.00
2022-10-09T13:27:21.947Z,8.73
2022-10-09T13:29:49.949Z,11.20
2022-10-09T13:32:19.618Z,4.43
2022-10-09T13:34:47.921Z,3.73
2022-10-09T13:37:17.836Z,4.30
2022-10-09T13:39:47.319Z,3.40
2022-10-09T13:42:17.483Z,3.07
2022-10-09T13:44:45.533Z,4.43
2022-10-09T13:47:13.540Z,3.57
2022-10-09T13:49:41.428Z,2.97
2022-10-09T13:52:09.538Z,4.17
2022-10-09T13:54:37.723Z,2.90
2022-10-09T13:57:07.095Z,2.20
2022-10-09T13:59:35.266Z,2.10
2022-10-09T14:02:03.495Z,3.00
2022-10-09T14:04:31.612Z,2.77
2022-10-09T14:06:59.430Z,2.27
2022-10-09T14:09:27.475Z,2.23
2022-10-09T14:11:55.340Z,2.20
2022-10-09T14:14:24.618Z,2.40
2022-10-09T14:16:52.564Z,2.70
2022-10-09T14:19:20.504Z,2.30
2022-10-09T14:21:48.451Z,2.33
2022-10-09T14:24:16.412Z,2.23
2022-10-09T14:26:47.334Z,2.13
2022-10-09T14:29:19.137Z,2.07
2022-10-09T14:31:50.902Z,1.97
2022-10-09T14:34:18.962Z,2.13
2022-10-09T14:36:46.883Z,2.10
2022-10-09T14:39:15.117Z,2.60
2022-10-09T14:41:43.087Z,3.83
2022-10-09T14:44:11.489Z,2.67
2022-10-09T14:46:39.431Z,3.10
2022-10-09T14:49:09.736Z,2.93
2022-10-09T14:51:39.632Z,2.73
2022-10-09T14:54:08.647Z,2.83
2022-10-09T14:56:36.975Z,4.07
2022-10-09T14:59:05.997Z,2.50
2022-10-09T15:01:34.804Z,2.80
2022-10-09T15:04:03.709Z,2.37
2022-10-09T15:06:33.958Z,2.73
2022-10-09T15:09:05.559Z,2.97
2022-10-09T15:11:35.474Z,2.90
2022-10-09T15:14:03.670Z,2.70
2022-10-09T15:16:31.745Z,2.60
2022-10-09T15:18:59.818Z,2.70
2022-10-09T15:21:30.062Z,3.53
2022-10-09T15:24:01.297Z,3.13
2022-10-09T15:26:32.818Z,2.40
2022-10-09T15:29:02.846Z,3.63
2022-10-09T15:31:32.781Z,2.40
2022-10-09T15:34:02.452Z,3.40
2022-10-09T15:36:31.392Z,2.87
2022-10-09T15:39:05.665Z,6.17
2022-10-09T15:41:35.345Z,3.30
2022-10-09T15:44:05.688Z,3.50
2022-10-09T15:46:33.605Z,3.13
2022-10-09T15:49:01.551Z,2.90
2022-10-09T15:51:30.194Z,2.30
2022-10-09T15:54:02.064Z,2.97
2022-10-09T15:56:30.743Z,3.67
2022-10-09T15:58:59.762Z,4.40
2022-10-09T16:01:27.662Z,7.83
2022-10-09T16:03:55.796Z,6.90
2022-10-09T16:06:25.496Z,5.60
2022-10-09T16:08:56.748Z,3.60
2022-10-09T16:11:26.960Z,3.80
2022-10-09T16:13:55.674Z,4.27
2022-10-09T16:16:27.636Z,4.03
2022-10-09T16:18:57.005Z,3.27
2022-10-09T16:21:27.706Z,3.50
2022-10-09T16:23:58.704Z,3.20
2022-10-09T16:26:30.627Z,3.30
2022-10-09T16:29:00.170Z,3.93
2022-10-09T16:31:30.290Z,3.00
2022-10-09T16:33:58.737Z,2.90
2022-10-09T16:36:26.998Z,2.97
2022-10-09T16:38:55.661Z,2.90
2022-10-09T16:41:24.293Z,3.23
2022-10-09T16:43:55.635Z,3.50
2022-10-09T16:46:25.667Z,2.90
2022-10-09T16:48:54.581Z,3.00
2022-10-09T16:51:24.874Z,3.33
2022-10-09T16:53:53.968Z,4.77
2022-10-09T16:56:23.790Z,4.07
2022-10-09T16:58:56.983Z,3.47
2022-10-09T17:01:25.659Z,3.13
2022-10-09T17:03:54.966Z,3.57
2022-10-09T17:06:24.232Z,4.03
2022-10-09T17:08:52.743Z,4.53
2022-10-09T17:11:21.479Z,3.37
2022-10-09T17:13:49.571Z,3.27
2022-10-09T17:16:21.059Z,3.90
2022-10-09T17:18:49.688Z,3.80
2022-10-09T17:21:19.164Z,4.00
2022-10-09T17:23:57.905Z,3.90
2022-10-09T17:26:27.479Z,4.10
2022-10-09T17:28:55.534Z,4.43
2022-10-09T17:31:26.111Z,4.33
2022-10-09T17:33:56.495Z,3.47
2022-10-09T17:36:26.207Z,4.10
2022-10-09T17:38:54.450Z,4.30
2022-10-09T17:41:24.533Z,4.10
2022-10-09T17:43:53.069Z,4.23
2022-10-09T17:46:21.605Z,4.40
2022-10-09T17:48:53.409Z,4.03
2022-10-09T17:51:23.931Z,4.10
2022-10-09T17:53:52.242Z,8.17
2022-10-09T17:56:20.279Z,5.83
2022-10-09T17:58:49.520Z,5.13
2022-10-09T18:01:18.457Z,6.33
2022-10-09T18:03:46.599Z,5.47
2022-10-09T18:06:18.154Z,4.77
2022-10-09T18:08:46.839Z,6.67
2022-10-09T18:11:17.407Z,13.07
2022-10-09T18:13:46.413Z,9.80
2022-10-09T18:16:18.029Z,7.97
2022-10-09T18:18:47.201Z,6.70
2022-10-09T18:21:17.902Z,6.43
2022-10-09T18:23:46.663Z,5.70
2022-10-09T18:26:16.212Z,5.77
2022-10-09T18:28:48.171Z,5.63
2022-10-09T18:31:21.358Z,5.53
2022-10-09T18:33:49.494Z,6.43
2022-10-09T18:36:22.798Z,6.00
2022-10-09T18:38:52.939Z,5.47
2022-10-09T18:41:22.428Z,4.93
2022-10-09T18:43:51.478Z,5.73
2022-10-09T18:46:22.066Z,5.10
2022-10-09T18:48:51.493Z,5.10
2022-10-09T18:51:24.396Z,4.97
2022-10-09T18:53:55.632Z,5.23
2022-10-09T18:56:23.717Z,6.30
2022-10-09T18:58:53.890Z,5.50
2022-10-09T19:01:22.133Z,5.50
2022-10-09T19:03:50.481Z,6.77
2022-10-09T19:06:20.312Z,6.17
2022-10-09T19:08:48.329Z,6.50
2022-10-09T19:11:16.773Z,4.60
2022-10-09T19:13:45.127Z,6.00
2022-10-09T19:16:13.015Z,5.60
2022-10-09T19:18:41.016Z,5.70
2022-10-09T19:21:13.696Z,4.80
2022-10-09T19:23:43.942Z,4.17
2022-10-09T19:26:13.677Z,4.30
2022-10-09T19:28:41.695Z,4.20
2022-10-09T19:31:11.666Z,3.77
2022-10-09T19:33:40.291Z,4.27
2022-10-09T19:36:10.835Z,3.83
2022-10-09T19:38:38.698Z,4.20
2022-10-09T19:41:11.006Z,4.40
2022-10-09T19:43:39.436Z,4.03
2022-10-09T19:46:09.710Z,4.13
2022-10-09T19:48:38.349Z,4.00
2022-10-09T19:51:07.492Z,3.70
2022-10-09T19:53:36.035Z,3.90
2022-10-09T19:56:09.554Z,4.00
2022-10-09T19:58:41.789Z,4.23
2022-10-09T20:01:11.792Z,3.83
2022-10-09T20:03:40.207Z,3.60
2022-10-09T20:06:09.665Z,3.90
2022-10-09T20:08:37.628Z,3.70
2022-10-09T20:11:06.467Z,4.13
2022-10-09T20:13:35.860Z,3.63
2022-10-09T20:16:07.799Z,3.40
2022-10-09T20:18:35.855Z,3.53
2022-10-09T20:21:03.762Z,3.43
2022-10-09T20:23:31.858Z,3.73
2022-10-09T20:26:00.958Z,3.37
2022-10-09T20:28:28.970Z,3.00
2022-10-09T20:30:57.715Z,4.73
2022-10-09T20:33:27.294Z,3.30
2022-10-09T20:35:55.168Z,3.23
2022-10-09T20:38:25.728Z,3.33
2022-10-09T20:40:54.322Z,3.47
2022-10-09T20:43:22.139Z,3.10
2022-10-09T20:45:50.088Z,3.13
2022-10-09T20:48:18.020Z,3.80
2022-10-09T20:50:47.282Z,3.37
2022-10-09T20:53:16.832Z,3.23
2022-10-09T20:55:44.663Z,2.93
2022-10-09T20:58:12.526Z,3.50
2022-10-09T21:00:43.299Z,3.00
2022-10-09T21:03:12.661Z,3.33
2022-10-09T21:05:44.933Z,2.50
2022-10-09T21:08:14.315Z,2.90
2022-10-09T21:10:47.373Z,2.83
2022-10-09T21:13:15.395Z,3.10
2022-10-09T21:15:44.235Z,2.53
2022-10-09T21:18:12.656Z,2.87
2022-10-09T21:20:41.399Z,2.57
2022-10-09T21:23:09.848Z,2.73
2022-10-09T21:25:39.958Z,2.67
2022-10-09T21:28:07.875Z,2.77
2022-10-09T21:30:41.510Z,2.73
2022-10-09T21:33:09.653Z,3.70
2022-10-09T21:35:40.558Z,2.90
2022-10-09T21:38:11.529Z,2.60
2022-10-09T21:40:40.811Z,3.07
2022-10-09T21:43:08.897Z,2.70
2022-10-09T21:45:36.949Z,2.63
2022-10-09T21:48:05.748Z,3.50
2022-10-09T21:50:34.345Z,4.17
2022-10-09T21:53:02.254Z,3.47
2022-10-09T21:55:30.118Z,3.37
2022-10-09T21:57:59.313Z,2.83
2022-10-09T22:00:27.310Z,2.53
2022-10-09T22:02:55.150Z,2.73
2022-10-09T22:05:22.969Z,3.43
2022-10-09T22:07:50.935Z,3.57
2022-10-09T22:10:18.905Z,3.30
2022-10-09T22:12:46.741Z,3.00
2022-10-09T22:15:16.073Z,2.77
2022-10-09T22:17:44.008Z,3.13
2022-10-09T22:20:13.117Z,2.90
2022-10-09T22:22:41.349Z,2.37
2022-10-09T22:25:09.901Z,2.50
2022-10-09T22:27:37.781Z,2.73
2022-10-09T22:30:06.777Z,2.40
2022-10-09T22:32:36.011Z,2.43
2022-10-09T22:35:03.970Z,2.20
2022-10-09T22:37:32.224Z,2.90
2022-10-09T22:40:00.047Z,2.60
2022-10-09T22:42:27.939Z,2.50
2022-10-09T22:44:55.925Z,2.60
2022-10-09T22:47:23.800Z,3.10
2022-10-09T22:49:53.033Z,2.60
2022-10-09T22:52:20.980Z,2.50
2022-10-09T22:54:48.820Z,2.70
2022-10-09T22:57:16.813Z,2.63
2022-10-09T22:59:44.939Z,2.87
2022-10-09T23:02:12.818Z,2.67
2022-10-09T23:04:40.606Z,2.37
2022-10-09T23:07:11.117Z,3.30
2022-10-09T23:09:45.894Z,2.63
2022-10-09T23:12:14.062Z,2.57
2022-10-09T23:14:42.034Z,2.60
2022-10-09T23:17:09.863Z,3.10
2022-10-09T23:19:38.069Z,2.90
2022-10-09T23:22:05.945Z,2.63
2022-10-09T23:24:35.140Z,3.30
2022-10-09T23:27:03.206Z,2.50
2022-10-09T23:29:31.003Z,2.33
2022-10-09T23:31:58.859Z,2.80
2022-10-09T23:34:26.907Z,2.67
2022-10-09T23:36:54.750Z,2.53
2022-10-09T23:39:22.588Z,2.20
2022-10-09T23:41:51.841Z,2.10
2022-10-09T23:44:22.132Z,2.50
2022-10-09T23:46:50.330Z,2.27
2022-10-09T23:49:18.335Z,2.17
2022-10-09T23:51:46.193Z,2.23
2022-10-09T23:54:14.299Z,2.20
2022-10-09T23:56:42.827Z,2.80
2022-10-09T23:59:13.010Z,2.93
